sensor_id;sensor_type;location;lat;lon;timestamp;pressure;altitude;pressure_sealevel;temperature;humidity
10261;BME280;5175;42.606;23.388;2023-01-29T00:01:13;93775.00;;;0.22;100.00
10261;BME280;5175;42.606;23.388;2023-01-29T00:03:40;93758.00;;;0.06;100.00
10261;BME280;5175;42.606;23.388;2023-01-29T00:06:07;93775.09;;;0.15;100.00
10261;BME280;5175;42.606;23.388;2023-01-29T00:08:34;93766.69;;;0.07;100.00
10261;BME280;5175;42.606;23.388;2023-01-29T00:11:02;93776.69;;;0.16;100.00
10261;BME280;5175;42.606;23.388;2023-01-29T00:13:29;93780.50;;;0.20;100.00
10261;BME280;5175;42.606;23.388;2023-01-29T00:15:57;93778.97;;;0.31;100.00
10261;BME280;5175;42.606;23.388;2023-01-29T00:18:24;93793.25;;;0.35;100.00
10261;BME280;5175;42.606;23.388;2023-01-29T00:20:51;93785.94;;;0.43;100.00
10261;BME280;5175;42.606;23.388;2023-01-29T00:23:18;93791.38;;;0.42;100.00
10261;BME280;5175;42.606;23.388;2023-01-29T00:25:45;93791.34;;;0.24;100.00
10261;BME280;5175;42.606;23.388;2023-01-29T00:28:12;93791.41;;;0.17;100.00
10261;BME280;5175;42.606;23.388;2023-01-29T00:30:40;93797.00;;;-0.04;100.00
10261;BME280;5175;42.606;23.388;2023-01-29T00:33:08;93791.53;;;-0.03;100.00
10261;BME280;5175;42.606;23.388;2023-01-29T00:35:38;93791.22;;;-0.13;100.00
10261;BME280;5175;42.606;23.388;2023-01-29T00:38:05;93793.59;;;-0.05;100.00
10261;BME280;5175;42.606;23.388;2023-01-29T00:40:32;93787.34;;;-0.04;100.00
10261;BME280;5175;42.606;23.388;2023-01-29T00:43:19;93792.47;;;0.10;100.00
10261;BME280;5175;42.606;23.388;2023-01-29T00:46:03;93793.22;;;-0.08;100.00
10261;BME280;5175;42.606;23.388;2023-01-29T00:48:33;93792.00;;;-0.06;100.00
10261;BME280;5175;42.606;23.388;2023-01-29T00:51:00;93793.38;;;-0.03;100.00
10261;BME280;5175;42.606;23.388;2023-01-29T00:53:28;93800.38;;;0.03;100.00
10261;BME280;5175;42.606;23.388;2023-01-29T00:55:54;93799.00;;;0.00;100.00
10261;BME280;5175;42.606;23.388;2023-01-29T00:58:21;93795.09;;;0.10;100.00
10261;BME280;5175;42.606;23.388;2023-01-29T01:00:59;93791.78;;;-0.04;100.00
10261;BME280;5175;42.606;23.388;2023-01-29T01:03:27;93794.00;;;-0.08;100.00
10261;BME280;5175;42.606;23.388;2023-01-29T01:06:03;93794.34;;;0.03;100.00
10261;BME280;5175;42.606;23.388;2023-01-29T01:08:30;93787.28;;;0.03;100.00
10261;BME280;5175;42.606;23.388;2023-01-29T01:11:14;93787.91;;;-0.02;100.00
10261;BME280;5175;42.606;23.388;2023-01-29T01:13:41;93789.09;;;-0.22;100.00
10261;BME280;5175;42.606;23.388;2023-01-29T01:16:09;93793.66;;;-0.11;100.00
10261;BME280;5175;42.606;23.388;2023-01-29T01:18:36;93796.09;;;-0.16;100.00
10261;BME280;5175;42.606;23.388;2023-01-29T01:21:05;93791.50;;;-0.21;100.00
10261;BME280;5175;42.606;23.388;2023-01-29T01:23:32;93784.66;;;-0.22;100.00
10261;BME280;5175;42.606;23.388;2023-01-29T01:25:59;93791.69;;;-0.22;100.00
10261;BME280;5175;42.606;23.388;2023-01-29T01:28:26;93697.84;;;-0.63;100.00
10261;BME280;5175;42.606;23.388;2023-01-29T01:30:52;93780.16;;;-0.15;100.00
10261;BME280;5175;42.606;23.388;2023-01-29T01:33:19;93790.72;;;-0.28;100.00
10261;BME280;5175;42.606;23.388;2023-01-29T01:35:46;93780.47;;;-0.29;100.00
10261;BME280;5175;42.606;23.388;2023-01-29T01:38:14;93785.91;;;-0.31;100.00
10261;BME280;5175;42.606;23.388;2023-01-29T01:40:43;93791.34;;;-0.26;100.00
10261;BME280;5175;42.606;23.388;2023-01-29T01:43:10;93789.59;;;-0.38;100.00
10261;BME280;5175;42.606;23.388;2023-01-29T01:45:37;93792.75;;;-0.30;100.00
10261;BME280;5175;42.606;23.388;2023-01-29T01:48:08;93776.06;;;-0.35;100.00
10261;BME280;5175;42.606;23.388;2023-01-29T01:50:40;93787.09;;;-0.27;100.00
10261;BME280;5175;42.606;23.388;2023-01-29T01:53:11;93785.72;;;-0.36;100.00
10261;BME280;5175;42.606;23.388;2023-01-29T01:55:42;93786.78;;;-0.37;100.00
10261;BME280;5175;42.606;23.388;2023-01-29T01:58:13;93776.16;;;-0.48;100.00
10261;BME280;5175;42.606;23.388;2023-01-29T02:00:42;93802.91;;;-0.40;100.00
10261;BME280;5175;42.606;23.388;2023-01-29T02:03:09;93806.09;;;-0.31;100.00
10261;BME280;5175;42.606;23.388;2023-01-29T02:05:57;93798.59;;;-0.28;100.00
10261;BME280;5175;42.606;23.388;2023-01-29T02:08:48;93806.16;;;-0.44;100.00
10261;BME280;5175;42.606;23.388;2023-01-29T02:11:37;93804.88;;;-0.35;100.00
10261;BME280;5175;42.606;23.388;2023-01-29T02:14:04;93799.94;;;-0.50;100.00
10261;BME280;5175;42.606;23.388;2023-01-29T02:16:32;93793.25;;;-0.46;100.00
10261;BME280;5175;42.606;23.388;2023-01-29T02:18:59;93800.28;;;-0.40;100.00
10261;BME280;5175;42.606;23.388;2023-01-29T02:22:04;93802.06;;;-0.34;100.00
10261;BME280;5175;42.606;23.388;2023-01-29T02:25:00;93804.78;;;-0.47;100.00
10261;BME280;5175;42.606;23.388;2023-01-29T02:27:55;93807.97;;;-0.45;100.00
10261;BME280;5175;42.606;23.388;2023-01-29T02:30:26;93798.31;;;-0.51;100.00
10261;BME280;5175;42.606;23.388;2023-01-29T02:32:59;93806.53;;;-0.41;100.00
10261;BME280;5175;42.606;23.388;2023-01-29T02:35:36;93800.28;;;-0.40;100.00
10261;BME280;5175;42.606;23.388;2023-01-29T02:38:11;93790.22;;;-0.43;100.00
10261;BME280;5175;42.606;23.388;2023-01-29T02:40:44;93813.16;;;-0.32;100.00
10261;BME280;5175;42.606;23.388;2023-01-29T02:43:25;93812.34;;;-0.32;100.00
10261;BME280;5175;42.606;23.388;2023-01-29T02:46:00;93821.00;;;-0.32;100.00
10261;BME280;5175;42.606;23.388;2023-01-29T02:48:37;93824.09;;;-0.41;100.00
10261;BME280;5175;42.606;23.388;2023-01-29T02:51:07;93825.59;;;-0.27;100.00
10261;BME280;5175;42.606;23.388;2023-01-29T02:53:38;93827.59;;;-0.23;100.00
10261;BME280;5175;42.606;23.388;2023-01-29T02:56:09;93829.22;;;-0.22;100.00
10261;BME280;5175;42.606;23.388;2023-01-29T02:58:42;93821.59;;;-0.30;100.00
10261;BME280;5175;42.606;23.388;2023-01-29T03:01:12;93830.09;;;-0.34;100.00
10261;BME280;5175;42.606;23.388;2023-01-29T03:03:44;93821.00;;;-0.32;100.00
10261;BME280;5175;42.606;23.388;2023-01-29T03:06:15;93825.44;;;-0.32;100.00
10261;BME280;5175;42.606;23.388;2023-01-29T03:08:51;93829.47;;;-0.30;100.00
10261;BME280;5175;42.606;23.388;2023-01-29T03:11:20;93832.41;;;-0.20;100.00
10261;BME280;5175;42.606;23.388;2023-01-29T03:13:51;93833.31;;;-0.32;100.00
10261;BME280;5175;42.606;23.388;2023-01-29T03:16:22;93832.84;;;-0.23;100.00
10261;BME280;5175;42.606;23.388;2023-01-29T03:18:54;93833.66;;;-0.22;100.00
10261;BME280;5175;42.606;23.388;2023-01-29T03:21:27;93828.44;;;-0.29;100.00
10261;BME280;5175;42.606;23.388;2023-01-29T03:24:14;93832.41;;;-0.20;100.00
10261;BME280;5175;42.606;23.388;2023-01-29T03:27:03;93841.25;;;-0.14;100.00
10261;BME280;5175;42.606;23.388;2023-01-29T03:29:52;93837.41;;;-0.12;100.00
10261;BME280;5175;42.606;23.388;2023-01-29T03:32:37;93838.06;;;-0.23;100.00
10261;BME280;5175;42.606;23.388;2023-01-29T03:35:07;93845.69;;;-0.15;100.00
10261;BME280;5175;42.606;23.388;2023-01-29T03:37:39;93837.50;;;-0.25;100.00
10261;BME280;5175;42.606;23.388;2023-01-29T03:40:08;93844.19;;;-0.29;100.00
10261;BME280;5175;42.606;23.388;2023-01-29T03:42:45;93816.44;;;-0.43;100.00
10261;BME280;5175;42.606;23.388;2023-01-29T03:45:20;93845.53;;;-0.20;100.00
10261;BME280;5175;42.606;23.388;2023-01-29T03:47:55;93846.16;;;-0.24;100.00
10261;BME280;5175;42.606;23.388;2023-01-29T03:50:33;93846.19;;;-0.31;100.00
10261;BME280;5175;42.606;23.388;2023-01-29T03:53:08;93828.13;;;-0.39;100.00
10261;BME280;5175;42.606;23.388;2023-01-29T03:55:42;93839.78;;;-0.35;100.00
10261;BME280;5175;42.606;23.388;2023-01-29T03:58:19;93848.63;;;-0.29;100.00
10261;BME280;5175;42.606;23.388;2023-01-29T04:00:53;93848.22;;;-0.33;100.00
10261;BME280;5175;42.606;23.388;2023-01-29T04:03:24;93842.34;;;-0.28;100.00
10261;BME280;5175;42.606;23.388;2023-01-29T04:05:55;93837.72;;;-0.33;100.00
10261;BME280;5175;42.606;23.388;2023-01-29T04:08:37;93820.84;;;-0.43;100.00
10261;BME280;5175;42.606;23.388;2023-01-29T04:11:10;93849.41;;;-0.29;100.00
10261;BME280;5175;42.606;23.388;2023-01-29T04:13:39;93843.78;;;-0.32;100.00
10261;BME280;5175;42.606;23.388;2023-01-29T04:16:12;93842.72;;;-0.25;100.00
10261;BME280;5175;42.606;23.388;2023-01-29T04:18:43;93855.66;;;-0.23;100.00
10261;BME280;5175;42.606;23.388;2023-01-29T04:21:11;93834.13;;;-0.38;100.00
10261;BME280;5175;42.606;23.388;2023-01-29T04:23:38;93858.22;;;-0.17;100.00
10261;BME280;5175;42.606;23.388;2023-01-29T04:26:22;93857.06;;;-0.27;100.00
10261;BME280;5175;42.606;23.388;2023-01-29T04:29:01;93856.47;;;-0.29;100.00
10261;BME280;5175;42.606;23.388;2023-01-29T04:31:35;93859.63;;;-0.14;100.00
10261;BME280;5175;42.606;23.388;2023-01-29T04:34:11;93851.47;;;-0.37;100.00
10261;BME280;5175;42.606;23.388;2023-01-29T04:36:48;93864.63;;;-0.44;100.00
10261;BME280;5175;42.606;23.388;2023-01-29T04:39:24;93852.47;;;-0.38;100.00
10261;BME280;5175;42.606;23.388;2023-01-29T04:41:56;93863.88;;;-0.20;100.00
10261;BME280;5175;42.606;23.388;2023-01-29T04:44:37;93878.78;;;-0.14;100.00
10261;BME280;5175;42.606;23.388;2023-01-29T04:47:15;93872.31;;;-0.11;100.00
10261;BME280;5175;42.606;23.388;2023-01-29T04:49:46;93865.28;;;-0.17;100.00
10261;BME280;5175;42.606;23.388;2023-01-29T04:52:20;93869.53;;;-0.23;100.00
10261;BME280;5175;42.606;23.388;2023-01-29T04:54:56;93864.72;;;-0.26;100.00
10261;BME280;5175;42.606;23.388;2023-01-29T04:57:33;93864.13;;;-0.28;100.00
10261;BME280;5175;42.606;23.388;2023-01-29T05:00:05;93868.56;;;-0.28;100.00
10261;BME280;5175;42.606;23.388;2023-01-29T05:02:38;93870.59;;;-0.30;100.00
10261;BME280;5175;42.606;23.388;2023-01-29T05:05:06;93867.56;;;-0.27;100.00
10261;BME280;5175;42.606;23.388;2023-01-29T05:07:36;93864.97;;;-0.34;100.00
10261;BME280;5175;42.606;23.388;2023-01-29T05:10:04;93860.88;;;-0.23;100.00
10261;BME280;5175;42.606;23.388;2023-01-29T05:12:32;93865.72;;;-0.27;100.00
10261;BME280;5175;42.606;23.388;2023-01-29T05:15:01;93868.78;;;-0.30;100.00
10261;BME280;5175;42.606;23.388;2023-01-29T05:17:29;93866.75;;;-0.28;100.00
10261;BME280;5175;42.606;23.388;2023-01-29T05:19:58;93860.31;;;-0.32;100.00
10261;BME280;5175;42.606;23.388;2023-01-29T05:22:25;93876.78;;;-0.18;100.00
10261;BME280;5175;42.606;23.388;2023-01-29T05:24:52;93880.59;;;-0.14;100.00
10261;BME280;5175;42.606;23.388;2023-01-29T05:27:22;93883.19;;;-0.14;100.00
10261;BME280;5175;42.606;23.388;2023-01-29T05:30:09;93886.63;;;-0.14;100.00
10261;BME280;5175;42.606;23.388;2023-01-29T05:32:35;93881.41;;;-0.14;100.00
10261;BME280;5175;42.606;23.388;2023-01-29T05:35:06;93889.22;;;-0.07;100.00
10261;BME280;5175;42.606;23.388;2023-01-29T05:37:32;93896.31;;;-0.14;100.00
10261;BME280;5175;42.606;23.388;2023-01-29T05:39:59;93900.91;;;-0.10;100.00
10261;BME280;5175;42.606;23.388;2023-01-29T05:42:26;93904.25;;;-0.27;100.00
10261;BME280;5175;42.606;23.388;2023-01-29T05:44:52;93906.06;;;-0.28;100.00
10261;BME280;5175;42.606;23.388;2023-01-29T05:47:19;93872.03;;;-0.34;100.00
10261;BME280;5175;42.606;23.388;2023-01-29T05:49:46;93898.19;;;-0.21;100.00
10261;BME280;5175;42.606;23.388;2023-01-29T05:52:14;93902.31;;;-0.07;100.00
10261;BME280;5175;42.606;23.388;2023-01-29T05:54:41;93901.91;;;-0.04;100.00
10261;BME280;5175;42.606;23.388;2023-01-29T05:57:08;93898.28;;;-0.03;100.00
10261;BME280;5175;42.606;23.388;2023-01-29T05:59:34;93909.00;;;-0.11;100.00
10261;BME280;5175;42.606;23.388;2023-01-29T06:02:01;93908.78;;;-0.10;100.00
10261;BME280;5175;42.606;23.388;2023-01-29T06:04:28;93907.72;;;-0.02;100.00
10261;BME280;5175;42.606;23.388;2023-01-29T06:06:54;93917.75;;;-0.24;100.00
10261;BME280;5175;42.606;23.388;2023-01-29T06:09:22;93922.75;;;-0.16;100.00
10261;BME280;5175;42.606;23.388;2023-01-29T06:11:49;93927.38;;;-0.18;100.00
10261;BME280;5175;42.606;23.388;2023-01-29T06:14:16;93927.59;;;-0.19;100.00
10261;BME280;5175;42.606;23.388;2023-01-29T06:16:42;93930.75;;;-0.04;100.00
10261;BME280;5175;42.606;23.388;2023-01-29T06:19:09;93933.16;;;-0.03;100.00
10261;BME280;5175;42.606;23.388;2023-01-29T06:21:36;93931.75;;;-0.05;100.00
10261;BME280;5175;42.606;23.388;2023-01-29T06:24:03;93932.19;;;-0.08;100.00
10261;BME280;5175;42.606;23.388;2023-01-29T06:26:31;93943.03;;;0.02;100.00
10261;BME280;5175;42.606;23.388;2023-01-29T06:28:58;93950.66;;;0.10;100.00
10261;BME280;5175;42.606;23.388;2023-01-29T06:31:25;93947.47;;;-0.05;100.00
10261;BME280;5175;42.606;23.388;2023-01-29T06:33:51;93947.13;;;-0.09;100.00
10261;BME280;5175;42.606;23.388;2023-01-29T06:36:18;93949.94;;;-0.10;100.00
10261;BME280;5175;42.606;23.388;2023-01-29T06:38:45;93955.75;;;-0.02;100.00
10261;BME280;5175;42.606;23.388;2023-01-29T06:41:15;93957.66;;;0.16;100.00
10261;BME280;5175;42.606;23.388;2023-01-29T06:43:44;93956.03;;;0.22;100.00
10261;BME280;5175;42.606;23.388;2023-01-29T06:46:12;93956.41;;;0.25;100.00
10261;BME280;5175;42.606;23.388;2023-01-29T06:48:38;93906.34;;;-0.05;100.00
10261;BME280;5175;42.606;23.388;2023-01-29T06:51:06;93957.97;;;0.33;100.00
10261;BME280;5175;42.606;23.388;2023-01-29T06:53:35;93971.75;;;0.22;100.00
10261;BME280;5175;42.606;23.388;2023-01-29T06:56:02;93977.16;;;0.33;100.00
10261;BME280;5175;42.606;23.388;2023-01-29T06:58:29;93964.38;;;0.43;100.00
10261;BME280;5175;42.606;23.388;2023-01-29T07:01:03;93942.31;;;0.20;100.00
10261;BME280;5175;42.606;23.388;2023-01-29T07:03:30;93965.88;;;0.26;100.00
10261;BME280;5175;42.606;23.388;2023-01-29T07:05:56;93971.44;;;0.43;100.00
10261;BME280;5175;42.606;23.388;2023-01-29T07:08:23;93974.25;;;0.41;100.00
10261;BME280;5175;42.606;23.388;2023-01-29T07:10:50;93973.97;;;0.56;100.00
10261;BME280;5175;42.606;23.388;2023-01-29T07:13:16;93975.38;;;0.58;100.00
10261;BME280;5175;42.606;23.388;2023-01-29T07:15:43;93975.78;;;0.55;100.00
10261;BME280;5175;42.606;23.388;2023-01-29T07:18:11;93975.06;;;0.73;100.00
10261;BME280;5175;42.606;23.388;2023-01-29T07:20:39;93964.06;;;0.58;100.00
10261;BME280;5175;42.606;23.388;2023-01-29T07:23:07;93988.75;;;0.50;100.00
10261;BME280;5175;42.606;23.388;2023-01-29T07:25:36;93987.50;;;0.22;100.00
10261;BME280;5175;42.606;23.388;2023-01-29T07:28:03;93988.38;;;0.09;100.00
10261;BME280;5175;42.606;23.388;2023-01-29T07:30:30;93987.72;;;0.20;100.00
10261;BME280;5175;42.606;23.388;2023-01-29T07:33:00;93973.53;;;-0.10;100.00
10261;BME280;5175;42.606;23.388;2023-01-29T07:35:28;93989.38;;;0.08;100.00
10261;BME280;5175;42.606;23.388;2023-01-29T07:37:55;93991.63;;;0.05;100.00
10261;BME280;5175;42.606;23.388;2023-01-29T07:40:21;93990.53;;;0.19;100.00
10261;BME280;5175;42.606;23.388;2023-01-29T07:42:48;93985.47;;;0.24;100.00
10261;BME280;5175;42.606;23.388;2023-01-29T07:45:15;93997.34;;;0.33;100.00
10261;BME280;5175;42.606;23.388;2023-01-29T07:47:42;93996.03;;;0.48;100.00
10261;BME280;5175;42.606;23.388;2023-01-29T07:50:09;93999.81;;;0.59;100.00
10261;BME280;5175;42.606;23.388;2023-01-29T07:52:37;93998.34;;;0.63;100.00
10261;BME280;5175;42.606;23.388;2023-01-29T07:55:05;93998.09;;;0.71;100.00
10261;BME280;5175;42.606;23.388;2023-01-29T07:57:32;94003.72;;;0.75;100.00
10261;BME280;5175;42.606;23.388;2023-01-29T07:59:58;94000.91;;;0.76;100.00
10261;BME280;5175;42.606;23.388;2023-01-29T08:02:25;94008.59;;;0.71;100.00
10261;BME280;5175;42.606;23.388;2023-01-29T08:04:52;94010.59;;;0.76;100.00
10261;BME280;5175;42.606;23.388;2023-01-29T08:07:18;94008.91;;;0.56;100.00
10261;BME280;5175;42.606;23.388;2023-01-29T08:09:46;94018.34;;;0.64;100.00
10261;BME280;5175;42.606;23.388;2023-01-29T08:12:13;94014.66;;;0.72;100.00
10261;BME280;5175;42.606;23.388;2023-01-29T08:14:40;94011.00;;;0.73;100.00
10261;BME280;5175;42.606;23.388;2023-01-29T08:17:06;94017.66;;;0.75;100.00
10261;BME280;5175;42.606;23.388;2023-01-29T08:19:33;94017.63;;;0.82;100.00
10261;BME280;5175;42.606;23.388;2023-01-29T08:22:00;94022.72;;;0.77;100.00
10261;BME280;5175;42.606;23.388;2023-01-29T08:24:26;94020.09;;;0.77;100.00
10261;BME280;5175;42.606;23.388;2023-01-29T08:26:55;94023.31;;;1.03;100.00
10261;BME280;5175;42.606;23.388;2023-01-29T08:29:22;94020.47;;;1.05;100.00
10261;BME280;5175;42.606;23.388;2023-01-29T08:31:48;94027.53;;;1.04;100.00
10261;BME280;5175;42.606;23.388;2023-01-29T08:34:15;94024.59;;;0.94;100.00
10261;BME280;5175;42.606;23.388;2023-01-29T08:36:42;94031.91;;;0.86;100.00
10261;BME280;5175;42.606;23.388;2023-01-29T08:39:08;94023.22;;;0.60;100.00
10261;BME280;5175;42.606;23.388;2023-01-29T08:41:35;94024.69;;;0.81;100.00
10261;BME280;5175;42.606;23.388;2023-01-29T08:44:04;94040.84;;;0.85;100.00
10261;BME280;5175;42.606;23.388;2023-01-29T08:46:31;94040.34;;;0.63;100.00
10261;BME280;5175;42.606;23.388;2023-01-29T08:48:57;94035.19;;;0.81;100.00
10261;BME280;5175;42.606;23.388;2023-01-29T08:51:24;94039.22;;;0.84;100.00
10261;BME280;5175;42.606;23.388;2023-01-29T08:53:52;94046.19;;;0.65;100.00
10261;BME280;5175;42.606;23.388;2023-01-29T08:56:18;94053.72;;;0.61;100.00
10261;BME280;5175;42.606;23.388;2023-01-29T08:58:45;94049.75;;;0.77;100.00
10261;BME280;5175;42.606;23.388;2023-01-29T09:01:13;94058.50;;;0.71;100.00
10261;BME280;5175;42.606;23.388;2023-01-29T09:03:40;94055.13;;;0.57;100.00
10261;BME280;5175;42.606;23.388;2023-01-29T09:06:09;94040.59;;;0.55;100.00
10261;BME280;5175;42.606;23.388;2023-01-29T09:08:37;94061.03;;;0.84;100.00
10261;BME280;5175;42.606;23.388;2023-01-29T09:11:04;94065.78;;;0.69;100.00
10261;BME280;5175;42.606;23.388;2023-01-29T09:13:31;94038.72;;;0.62;100.00
10261;BME280;5175;42.606;23.388;2023-01-29T09:15:58;94058.38;;;0.53;100.00
10261;BME280;5175;42.606;23.388;2023-01-29T09:18:28;94046.69;;;0.49;100.00
10261;BME280;5175;42.606;23.388;2023-01-29T09:20:55;94050.50;;;0.53;100.00
10261;BME280;5175;42.606;23.388;2023-01-29T09:23:22;94034.00;;;0.46;100.00
10261;BME280;5175;42.606;23.388;2023-01-29T09:25:49;94039.97;;;0.59;100.00
10261;BME280;5175;42.606;23.388;2023-01-29T09:28:16;94049.31;;;0.49;100.00
10261;BME280;5175;42.606;23.388;2023-01-29T09:30:43;94046.84;;;0.54;100.00
10261;BME280;5175;42.606;23.388;2023-01-29T09:33:10;94042.81;;;0.58;100.00
10261;BME280;5175;42.606;23.388;2023-01-29T09:35:40;94030.16;;;0.48;100.00
10261;BME280;5175;42.606;23.388;2023-01-29T09:38:07;94050.91;;;0.56;100.00
10261;BME280;5175;42.606;23.388;2023-01-29T09:40:40;94047.38;;;0.38;100.00
10261;BME280;5175;42.606;23.388;2023-01-29T09:43:13;94037.03;;;0.43;100.00
10261;BME280;5175;42.606;23.388;2023-01-29T09:45:49;94045.44;;;0.58;100.00
10261;BME280;5175;42.606;23.388;2023-01-29T09:48:19;94037.22;;;0.48;100.00
10261;BME280;5175;42.606;23.388;2023-01-29T09:50:50;94036.81;;;0.51;100.00
10261;BME280;5175;42.606;23.388;2023-01-29T09:53:24;94043.63;;;0.58;100.00
10261;BME280;5175;42.606;23.388;2023-01-29T09:55:58;94033.38;;;0.44;100.00
10261;BME280;5175;42.606;23.388;2023-01-29T09:58:29;94002.34;;;0.41;100.00
10261;BME280;5175;42.606;23.388;2023-01-29T10:01:05;94034.59;;;0.79;100.00
10261;BME280;5175;42.606;23.388;2023-01-29T10:03:44;94031.34;;;0.84;100.00
10261;BME280;5175;42.606;23.388;2023-01-29T10:06:24;94030.09;;;0.86;100.00
10261;BME280;5175;42.606;23.388;2023-01-29T10:09:06;94018.25;;;0.77;100.00
10261;BME280;5175;42.606;23.388;2023-01-29T10:11:45;94019.47;;;0.75;100.00
10261;BME280;5175;42.606;23.388;2023-01-29T10:14:18;94023.84;;;0.87;100.00
10261;BME280;5175;42.606;23.388;2023-01-29T10:17:02;93965.63;;;0.66;100.00
10261;BME280;5175;42.606;23.388;2023-01-29T10:19:52;94034.19;;;1.07;100.00
10261;BME280;5175;42.606;23.388;2023-01-29T10:22:52;94021.72;;;1.02;100.00
10261;BME280;5175;42.606;23.388;2023-01-29T10:25:24;94008.59;;;0.71;100.00
10261;BME280;5175;42.606;23.388;2023-01-29T10:27:53;94020.09;;;0.77;100.00
10261;BME280;5175;42.606;23.388;2023-01-29T10:30:28;93988.44;;;0.65;100.00
10261;BME280;5175;42.606;23.388;2023-01-29T10:32:58;93985.47;;;0.61;100.00
10261;BME280;5175;42.606;23.388;2023-01-29T10:35:30;94008.13;;;0.81;100.00
10261;BME280;5175;42.606;23.388;2023-01-29T10:38:11;93982.03;;;0.54;100.00
10261;BME280;5175;42.606;23.388;2023-01-29T10:40:46;94004.59;;;0.69;100.00
10261;BME280;5175;42.606;23.388;2023-01-29T10:43:18;93990.22;;;0.71;100.00
10261;BME280;5175;42.606;23.388;2023-01-29T10:45:54;94007.06;;;0.88;100.00
10261;BME280;5175;42.606;23.388;2023-01-29T10:48:44;94002.38;;;0.90;100.00
10261;BME280;5175;42.606;23.388;2023-01-29T10:51:26;93988.44;;;0.65;100.00
10261;BME280;5175;42.606;23.388;2023-01-29T10:54:07;93980.22;;;0.55;100.00
10261;BME280;5175;42.606;23.388;2023-01-29T10:56:47;93994.44;;;0.72;100.00
10261;BME280;5175;42.606;23.388;2023-01-29T10:59:31;93992.88;;;0.64;100.00
10261;BME280;5175;42.606;23.388;2023-01-29T11:02:00;93990.09;;;0.59;100.00
10261;BME280;5175;42.606;23.388;2023-01-29T11:04:29;93987.09;;;0.56;100.00
10261;BME280;5175;42.606;23.388;2023-01-29T11:06:57;93982.78;;;0.68;100.00
10261;BME280;5175;42.606;23.388;2023-01-29T11:09:29;93981.03;;;0.87;100.00
10261;BME280;5175;42.606;23.388;2023-01-29T11:12:01;93994.25;;;0.74;100.00
10261;BME280;5175;42.606;23.388;2023-01-29T11:14:41;93974.63;;;0.76;100.00
10261;BME280;5175;42.606;23.388;2023-01-29T11:17:14;93985.06;;;0.83;100.00
10261;BME280;5175;42.606;23.388;2023-01-29T11:19:43;93974.97;;;0.86;100.00
10261;BME280;5175;42.606;23.388;2023-01-29T11:22:13;93992.81;;;1.02;100.00
10261;BME280;5175;42.606;23.388;2023-01-29T11:24:41;93980.84;;;1.06;100.00
10261;BME280;5175;42.606;23.388;2023-01-29T11:27:20;93964.28;;;1.06;100.00
10261;BME280;5175;42.606;23.388;2023-01-29T11:29:51;93967.88;;;1.11;100.00
10261;BME280;5175;42.606;23.388;2023-01-29T11:32:25;93960.38;;;0.66;100.00
10261;BME280;5175;42.606;23.388;2023-01-29T11:35:02;93964.94;;;0.77;100.00
10261;BME280;5175;42.606;23.388;2023-01-29T11:37:35;93932.25;;;0.48;100.00
10261;BME280;5175;42.606;23.388;2023-01-29T11:40:31;93963.44;;;0.87;100.00
10261;BME280;5175;42.606;23.388;2023-01-29T11:43:10;93944.66;;;1.08;100.00
10261;BME280;5175;42.606;23.388;2023-01-29T11:45:38;93942.97;;;1.39;100.00
10261;BME280;5175;42.606;23.388;2023-01-29T11:48:12;93937.53;;;1.70;100.00
10261;BME280;5175;42.606;23.388;2023-01-29T11:50:40;93946.94;;;1.77;100.00
10261;BME280;5175;42.606;23.388;2023-01-29T11:53:20;93934.75;;;1.65;100.00
10261;BME280;5175;42.606;23.388;2023-01-29T11:55:50;93939.97;;;2.01;100.00
10261;BME280;5175;42.606;23.388;2023-01-29T11:58:19;93948.41;;;2.21;100.00
10261;BME280;5175;42.606;23.388;2023-01-29T12:00:50;93949.03;;;2.35;100.00
10261;BME280;5175;42.606;23.388;2023-01-29T12:03:21;93940.88;;;2.25;100.00
10261;BME280;5175;42.606;23.388;2023-01-29T12:05:53;93940.16;;;2.47;100.00
10261;BME280;5175;42.606;23.388;2023-01-29T12:08:22;93929.31;;;2.67;100.00
10261;BME280;5175;42.606;23.388;2023-01-29T12:10:51;93943.75;;;2.65;100.00
10261;BME280;5175;42.606;23.388;2023-01-29T12:13:32;93942.97;;;2.76;100.00
10261;BME280;5175;42.606;23.388;2023-01-29T12:16:16;93936.34;;;2.96;100.00
10261;BME280;5175;42.606;23.388;2023-01-29T12:18:49;93942.16;;;2.75;100.00
10261;BME280;5175;42.606;23.388;2023-01-29T12:21:22;93926.94;;;2.77;100.00
10261;BME280;5175;42.606;23.388;2023-01-29T12:23:56;93935.50;;;2.73;100.00
10261;BME280;5175;42.606;23.388;2023-01-29T12:26:31;93935.06;;;2.76;100.00
10261;BME280;5175;42.606;23.388;2023-01-29T12:29:12;93946.16;;;2.78;100.00
10261;BME280;5175;42.606;23.388;2023-01-29T12:31:44;93939.03;;;2.55;100.00
10261;BME280;5175;42.606;23.388;2023-01-29T12:34:18;93943.28;;;2.26;100.00
10261;BME280;5175;42.606;23.388;2023-01-29T12:36:52;93923.09;;;2.09;100.00
10261;BME280;5175;42.606;23.388;2023-01-29T12:39:20;93945.84;;;2.33;100.00
10261;BME280;5175;42.606;23.388;2023-01-29T12:41:53;93928.03;;;2.17;100.00
10261;BME280;5175;42.606;23.388;2023-01-29T12:44:25;93951.69;;;2.35;100.00
10261;BME280;5175;42.606;23.388;2023-01-29T12:46:57;93955.38;;;2.16;100.00
10261;BME280;5175;42.606;23.388;2023-01-29T12:49:27;93953.53;;;2.16;100.00
10261;BME280;5175;42.606;23.388;2023-01-29T12:51:59;93945.47;;;2.29;100.00
10261;BME280;5175;42.606;23.388;2023-01-29T12:54:32;93939.75;;;2.32;100.00
10261;BME280;5175;42.606;23.388;2023-01-29T12:57:08;93941.53;;;2.50;100.00
10261;BME280;5175;42.606;23.388;2023-01-29T12:59:40;93942.28;;;2.39;100.00
10261;BME280;5175;42.606;23.388;2023-01-29T13:02:16;93941.63;;;2.14;100.00
10261;BME280;5175;42.606;23.388;2023-01-29T13:04:47;93945.59;;;2.34;100.00
10261;BME280;5175;42.606;23.388;2023-01-29T13:07:22;93954.38;;;2.46;100.00
10261;BME280;5175;42.606;23.388;2023-01-29T13:09:53;93942.34;;;2.50;100.00
10261;BME280;5175;42.606;23.388;2023-01-29T13:12:23;93949.22;;;2.51;100.00
10261;BME280;5175;42.606;23.388;2023-01-29T13:14:53;93950.47;;;2.19;100.00
10261;BME280;5175;42.606;23.388;2023-01-29T13:17:26;93943.66;;;2.00;100.00